sensor_id;sensor_type;location;lat;lon;timestamp;P1;durP1;ratioP1;P2;durP2;ratioP2
47129;SDS011;69689;48.122;11.542;2024-02-26T06:06:17;3.70;;;1.48;;
47129;SDS011;69689;48.122;11.542;2024-02-26T06:08:44;3.22;;;1.75;;
47129;SDS011;69689;48.122;11.542;2024-02-26T06:11:09;7.30;;;2.70;;
47129;SDS011;69689;48.122;11.542;2024-02-26T06:13:35;5.05;;;1.73;;
47129;SDS011;69689;48.122;11.542;2024-02-26T06:16:00;1.92;;;1.17;;
47129;SDS011;69689;48.122;11.542;2024-02-26T06:18:26;3.88;;;1.33;;
47129;SDS011;69689;48.122;11.542;2024-02-26T06:20:51;2.15;;;1.45;;
47129;SDS011;69689;48.122;11.542;2024-02-26T06:23:17;3.22;;;1.25;;
47129;SDS011;69689;48.122;11.542;2024-02-26T06:25:42;3.22;;;1.58;;
47129;SDS011;69689;48.122;11.542;2024-02-26T06:28:08;4.03;;;1.55;;
47129;SDS011;69689;48.122;11.542;2024-02-26T06:30:34;5.30;;;2.33;;
47129;SDS011;69689;48.122;11.542;2024-02-26T06:33:00;10.70;;;3.72;;
47129;SDS011;69689;48.122;11.542;2024-02-26T06:35:26;20.50;;;4.95;;
47129;SDS011;69689;48.122;11.542;2024-02-26T06:37:52;9.07;;;2.63;;
47129;SDS011;69689;48.122;11.542;2024-02-26T06:40:18;2.13;;;1.50;;
47129;SDS011;69689;48.122;11.542;2024-02-26T06:42:46;10.88;;;2.78;;
47129;SDS011;69689;48.122;11.542;2024-02-26T06:45:12;12.10;;;4.32;;
47129;SDS011;69689;48.122;11.542;2024-02-26T06:47:38;6.10;;;2.20;;
47129;SDS011;69689;48.122;11.542;2024-02-26T06:50:03;7.93;;;2.30;;
47129;SDS011;69689;48.122;11.542;2024-02-26T06:52:29;2.58;;;1.70;;
47129;SDS011;69689;48.122;11.542;2024-02-26T06:54:54;4.40;;;1.80;;
47129;SDS011;69689;48.122;11.542;2024-02-26T06:57:20;3.15;;;1.55;;
47129;SDS011;69689;48.122;11.542;2024-02-26T06:59:46;4.10;;;1.80;;
47129;SDS011;69689;48.122;11.542;2024-02-26T07:02:15;5.75;;;1.80;;
47129;SDS011;69689;48.122;11.542;2024-02-26T07:04:41;2.97;;;1.50;;
47129;SDS011;69689;48.122;11.542;2024-02-26T07:07:07;5.13;;;1.80;;
47129;SDS011;69689;48.122;11.542;2024-02-26T07:09:33;3.67;;;1.80;;
47129;SDS011;69689;48.122;11.542;2024-02-26T07:11:59;3.05;;;1.25;;
47129;SDS011;69689;48.122;11.542;2024-02-26T07:14:24;6.15;;;1.83;;
47129;SDS011;69689;48.122;11.542;2024-02-26T07:16:50;2.67;;;1.27;;
47129;SDS011;69689;48.122;11.542;2024-02-26T07:19:16;2.67;;;1.30;;
47129;SDS011;69689;48.122;11.542;2024-02-26T07:21:41;3.63;;;1.40;;
47129;SDS011;69689;48.122;11.542;2024-02-26T07:24:06;1.67;;;1.35;;
47129;SDS011;69689;48.122;11.542;2024-02-26T07:26:32;5.53;;;1.60;;
47129;SDS011;69689;48.122;11.542;2024-02-26T07:28:58;3.50;;;1.42;;
47129;SDS011;69689;48.122;11.542;2024-02-26T07:31:23;4.55;;;1.52;;
47129;SDS011;69689;48.122;11.542;2024-02-26T07:33:49;4.30;;;1.70;;
47129;SDS011;69689;48.122;11.542;2024-02-26T07:36:14;2.50;;;1.50;;
47129;SDS011;69689;48.122;11.542;2024-02-26T07:38:40;3.55;;;1.98;;
47129;SDS011;69689;48.122;11.542;2024-02-26T07:41:05;3.97;;;1.65;;
47129;SDS011;69689;48.122;11.542;2024-02-26T07:43:31;4.95;;;1.77;;
47129;SDS011;69689;48.122;11.542;2024-02-26T07:45:57;3.05;;;1.55;;
47129;SDS011;69689;48.122;11.542;2024-02-26T07:48:22;5.20;;;1.83;;
47129;SDS011;69689;48.122;11.542;2024-02-26T07:50:48;5.53;;;2.28;;
47129;SDS011;69689;48.122;11.542;2024-02-26T07:53:14;5.78;;;2.00;;
47129;SDS011;69689;48.122;11.542;2024-02-26T07:55:39;4.60;;;2.58;;
47129;SDS011;69689;48.122;11.542;2024-02-26T07:58:05;3.28;;;2.00;;
47129;SDS011;69689;48.122;11.542;2024-02-26T08:00:31;5.32;;;2.05;;
47129;SDS011;69689;48.122;11.542;2024-02-26T08:02:56;4.47;;;1.98;;
47129;SDS011;69689;48.122;11.542;2024-02-26T08:05:22;5.63;;;2.22;;
47129;SDS011;69689;48.122;11.542;2024-02-26T08:07:47;5.28;;;1.90;;
47129;SDS011;69689;48.122;11.542;2024-02-26T08:10:13;6.00;;;2.60;;
47129;SDS011;69689;48.122;11.542;2024-02-26T08:12:38;4.13;;;2.08;;
47129;SDS011;69689;48.122;11.542;2024-02-26T08:15:04;6.93;;;2.28;;
47129;SDS011;69689;48.122;11.542;2024-02-26T08:17:30;5.95;;;2.22;;
47129;SDS011;69689;48.122;11.542;2024-02-26T08:19:57;9.27;;;2.40;;
47129;SDS011;69689;48.122;11.542;2024-02-26T08:22:24;4.25;;;1.70;;
47129;SDS011;69689;48.122;11.542;2024-02-26T08:24:49;3.95;;;1.60;;
47129;SDS011;69689;48.122;11.542;2024-02-26T08:27:14;3.10;;;1.52;;
47129;SDS011;69689;48.122;11.542;2024-02-26T08:29:43;3.55;;;1.67;;
47129;SDS011;69689;48.122;11.542;2024-02-26T08:32:08;4.30;;;1.83;;
47129;SDS011;69689;48.122;11.542;2024-02-26T08:34:34;6.53;;;2.10;;
47129;SDS011;69689;48.122;11.542;2024-02-26T08:36:59;6.40;;;2.00;;
47129;SDS011;69689;48.122;11.542;2024-02-26T08:39:24;6.55;;;1.83;;
47129;SDS011;69689;48.122;11.542;2024-02-26T08:41:50;3.42;;;2.03;;
47129;SDS011;69689;48.122;11.542;2024-02-26T08:44:16;7.32;;;2.33;;
47129;SDS011;69689;48.122;11.542;2024-02-26T08:46:41;4.53;;;2.10;;
47129;SDS011;69689;48.122;11.542;2024-02-26T08:49:07;5.90;;;2.00;;
47129;SDS011;69689;48.122;11.542;2024-02-26T08:51:32;6.57;;;2.15;;
47129;SDS011;69689;48.122;11.542;2024-02-26T08:53:59;7.07;;;2.17;;
47129;SDS011;69689;48.122;11.542;2024-02-26T08:56:24;6.13;;;2.22;;
47129;SDS011;69689;48.122;11.542;2024-02-26T08:58:50;4.20;;;1.85;;
47129;SDS011;69689;48.122;11.542;2024-02-26T09:01:18;3.25;;;1.88;;
47129;SDS011;69689;48.122;11.542;2024-02-26T09:03:48;8.80;;;3.08;;
47129;SDS011;69689;48.122;11.542;2024-02-26T09:06:17;6.78;;;3.13;;
47129;SDS011;69689;48.122;11.542;2024-02-26T09:08:46;6.78;;;2.40;;
47129;SDS011;69689;48.122;11.542;2024-02-26T09:11:11;4.20;;;1.45;;
47129;SDS011;69689;48.122;11.542;2024-02-26T09:13:37;4.15;;;1.58;;
47129;SDS011;69689;48.122;11.542;2024-02-26T09:16:03;3.42;;;1.48;;
47129;SDS011;69689;48.122;11.542;2024-02-26T09:18:32;6.10;;;1.65;;
47129;SDS011;69689;48.122;11.542;2024-02-26T09:20:58;6.78;;;1.60;;
47129;SDS011;69689;48.122;11.542;2024-02-26T09:23:23;2.22;;;1.48;;
47129;SDS011;69689;48.122;11.542;2024-02-26T09:25:48;2.95;;;1.50;;
47129;SDS011;69689;48.122;11.542;2024-02-26T09:28:14;3.15;;;1.88;;
47129;SDS011;69689;48.122;11.542;2024-02-26T09:30:43;3.83;;;1.63;;
47129;SDS011;69689;48.122;11.542;2024-02-26T09:33:09;9.25;;;2.08;;
47129;SDS011;69689;48.122;11.542;2024-02-26T09:35:34;5.97;;;2.08;;
47129;SDS011;69689;48.122;11.542;2024-02-26T09:38:00;5.55;;;2.42;;
47129;SDS011;69689;48.122;11.542;2024-02-26T09:40:26;8.70;;;2.47;;
47129;SDS011;69689;48.122;11.542;2024-02-26T09:42:53;6.47;;;2.40;;
47129;SDS011;69689;48.122;11.542;2024-02-26T09:47:49;4.90;;;1.67;;
47129;SDS011;69689;48.122;11.542;2024-02-26T09:50:16;3.97;;;1.83;;
47129;SDS011;69689;48.122;11.542;2024-02-26T09:52:43;6.43;;;1.92;;
47129;SDS011;69689;48.122;11.542;2024-02-26T09:55:09;4.35;;;2.08;;
47129;SDS011;69689;48.122;11.542;2024-02-26T09:57:37;4.22;;;2.28;;
47129;SDS011;69689;48.122;11.542;2024-02-26T10:00:03;5.15;;;2.33;;
47129;SDS011;69689;48.122;11.542;2024-02-26T10:02:31;6.65;;;2.53;;
47129;SDS011;69689;48.122;11.542;2024-02-26T10:04:59;6.57;;;1.80;;
47129;SDS011;69689;48.122;11.542;2024-02-26T10:07:26;7.03;;;1.85;;
47129;SDS011;69689;48.122;11.542;2024-02-26T10:09:54;8.57;;;1.83;;
47129;SDS011;69689;48.122;11.542;2024-02-26T10:12:20;5.75;;;2.10;;
47129;SDS011;69689;48.122;11.542;2024-02-26T10:14:47;6.03;;;1.83;;
47129;SDS011;69689;48.122;11.542;2024-02-26T10:17:15;4.03;;;1.40;;
47129;SDS011;69689;48.122;11.542;2024-02-26T10:19:40;2.85;;;1.58;;
47129;SDS011;69689;48.122;11.542;2024-02-26T10:22:06;2.90;;;1.50;;
47129;SDS011;69689;48.122;11.542;2024-02-26T10:24:31;5.38;;;1.73;;
47129;SDS011;69689;48.122;11.542;2024-02-26T10:26:57;4.38;;;1.50;;
47129;SDS011;69689;48.122;11.542;2024-02-26T10:29:26;2.92;;;1.65;;
47129;SDS011;69689;48.122;11.542;2024-02-26T10:31:52;1.45;;;1.20;;
47129;SDS011;69689;48.122;11.542;2024-02-26T10:34:18;3.80;;;2.17;;
47129;SDS011;69689;48.122;11.542;2024-02-26T10:36:44;2.28;;;1.40;;
47129;SDS011;69689;48.122;11.542;2024-02-26T10:39:09;4.40;;;1.42;;
47129;SDS011;69689;48.122;11.542;2024-02-26T10:41:37;3.58;;;1.33;;
47129;SDS011;69689;48.122;11.542;2024-02-26T10:44:03;6.97;;;1.90;;
47129;SDS011;69689;48.122;11.542;2024-02-26T10:46:29;4.40;;;1.52;;
47129;SDS011;69689;48.122;11.542;2024-02-26T10:48:55;3.10;;;1.40;;
47129;SDS011;69689;48.122;11.542;2024-02-26T10:51:28;4.15;;;1.30;;
47129;SDS011;69689;48.122;11.542;2024-02-26T10:53:55;4.90;;;1.10;;
47129;SDS011;69689;48.122;11.542;2024-02-26T10:56:27;3.00;;;1.30;;
47129;SDS011;69689;48.122;11.542;2024-02-26T10:58:54;6.07;;;1.38;;
47129;SDS011;69689;48.122;11.542;2024-02-26T11:01:20;1.63;;;1.23;;
47129;SDS011;69689;48.122;11.542;2024-02-26T11:03:48;3.63;;;1.48;;
47129;SDS011;69689;48.122;11.542;2024-02-26T11:06:15;1.38;;;1.25;;
47129;SDS011;69689;48.122;11.542;2024-02-26T11:08:40;5.22;;;1.50;;
47129;SDS011;69689;48.122;11.542;2024-02-26T11:11:06;5.28;;;1.20;;
47129;SDS011;69689;48.122;11.542;2024-02-26T11:13:31;1.30;;;1.10;;
47129;SDS011;69689;48.122;11.542;2024-02-26T11:15:57;2.08;;;1.00;;
47129;SDS011;69689;48.122;11.542;2024-02-26T11:18:23;1.38;;;1.00;;
47129;SDS011;69689;48.122;11.542;2024-02-26T11:20:52;1.67;;;1.00;;
47129;SDS011;69689;48.122;11.542;2024-02-26T11:23:20;1.90;;;0.85;;
47129;SDS011;69689;48.122;11.542;2024-02-26T11:25:47;2.25;;;1.20;;
47129;SDS011;69689;48.122;11.542;2024-02-26T11:28:14;1.33;;;0.95;;
47129;SDS011;69689;48.122;11.542;2024-02-26T11:30:43;3.38;;;1.13;;
47129;SDS011;69689;48.122;11.542;2024-02-26T11:33:10;3.75;;;1.50;;
47129;SDS011;69689;48.122;11.542;2024-02-26T11:35:37;1.33;;;0.90;;
47129;SDS011;69689;48.122;11.542;2024-02-26T11:38:03;4.38;;;0.70;;
47129;SDS011;69689;48.122;11.542;2024-02-26T11:40:30;5.03;;;0.55;;
47129;SDS011;69689;48.122;11.542;2024-02-26T11:42:56;0.70;;;0.60;;
47129;SDS011;69689;48.122;11.542;2024-02-26T11:50:42;1.05;;;0.80;;
47129;SDS011;69689;48.122;11.542;2024-02-26T11:53:27;0.70;;;0.70;;
47129;SDS011;69689;48.122;11.542;2024-02-26T11:58:41;2.33;;;0.90;;
47129;SDS011;69689;48.122;11.542;2024-02-26T12:04:01;2.13;;;0.93;;
47129;SDS011;69689;48.122;11.542;2024-02-26T12:06:27;2.83;;;0.80;;
47129;SDS011;69689;48.122;11.542;2024-02-26T12:08:53;4.68;;;0.65;;
47129;SDS011;69689;48.122;11.542;2024-02-26T12:11:20;0.93;;;0.60;;
47129;SDS011;69689;48.122;11.542;2024-02-26T12:13:47;2.25;;;0.80;;
47129;SDS011;69689;48.122;11.542;2024-02-26T12:18:46;1.67;;;0.63;;
47129;SDS011;69689;48.122;11.542;2024-02-26T12:21:12;0.85;;;0.60;;
47129;SDS011;69689;48.122;11.542;2024-02-26T12:23:38;1.25;;;0.77;;
47129;SDS011;69689;48.122;11.542;2024-02-26T12:26:03;1.45;;;0.60;;
47129;SDS011;69689;48.122;11.542;2024-02-26T12:28:29;1.52;;;0.77;;
47129;SDS011;69689;48.122;11.542;2024-02-26T12:30:55;1.92;;;1.00;;
47129;SDS011;69689;48.122;11.542;2024-02-26T12:33:20;1.63;;;0.90;;
47129;SDS011;69689;48.122;11.542;2024-02-26T12:35:46;0.80;;;0.80;;
47129;SDS011;69689;48.122;11.542;2024-02-26T12:38:14;1.70;;;0.90;;
47129;SDS011;69689;48.122;11.542;2024-02-26T12:40:39;1.67;;;0.80;;
47129;SDS011;69689;48.122;11.542;2024-02-26T12:43:08;1.30;;;0.60;;
47129;SDS011;69689;48.122;11.542;2024-02-26T12:48:06;5.50;;;1.00;;
47129;SDS011;69689;48.122;11.542;2024-02-26T12:50:35;1.42;;;0.65;;
47129;SDS011;69689;48.122;11.542;2024-02-26T12:53:00;0.95;;;0.77;;
47129;SDS011;69689;48.122;11.542;2024-02-26T12:55:26;1.13;;;0.60;;
47129;SDS011;69689;48.122;11.542;2024-02-26T12:57:52;1.40;;;0.60;;
47129;SDS011;69689;48.122;11.542;2024-02-26T13:00:21;1.27;;;0.77;;
47129;SDS011;69689;48.122;11.542;2024-02-26T13:02:48;0.63;;;0.63;;
47129;SDS011;69689;48.122;11.542;2024-02-26T13:05:15;3.83;;;0.77;;
47129;SDS011;69689;48.122;11.542;2024-02-26T13:07:44;2.42;;;0.88;;
47129;SDS011;69689;48.122;11.542;2024-02-26T13:10:12;2.10;;;0.85;;
47129;SDS011;69689;48.122;11.542;2024-02-26T13:12:42;2.95;;;0.90;;
47129;SDS011;69689;48.122;11.542;2024-02-26T13:15:19;2.03;;;1.75;;
47129;SDS011;69689;48.122;11.542;2024-02-26T13:17:46;1.13;;;0.70;;
47129;SDS011;69689;48.122;11.542;2024-02-26T13:20:12;0.75;;;0.70;;
47129;SDS011;69689;48.122;11.542;2024-02-26T13:22:38;2.80;;;0.77;;
47129;SDS011;69689;48.122;11.542;2024-02-26T13:25:04;1.40;;;0.90;;
47129;SDS011;69689;48.122;11.542;2024-02-26T13:27:32;1.17;;;0.77;;
47129;SDS011;69689;48.122;11.542;2024-02-26T13:30:10;2.78;;;1.20;;
47129;SDS011;69689;48.122;11.542;2024-02-26T13:32:38;2.85;;;0.93;;
47129;SDS011;69689;48.122;11.542;2024-02-26T13:35:05;1.90;;;0.90;;
47129;SDS011;69689;48.122;11.542;2024-02-26T13:39:59;2.97;;;0.82;;
47129;SDS011;69689;48.122;11.542;2024-02-26T13:42:30;2.47;;;1.10;;
47129;SDS011;69689;48.122;11.542;2024-02-26T13:44:59;2.20;;;1.10;;
47129;SDS011;69689;48.122;11.542;2024-02-26T13:47:25;1.67;;;0.90;;
47129;SDS011;69689;48.122;11.542;2024-02-26T13:49:50;1.15;;;0.82;;
47129;SDS011;69689;48.122;11.542;2024-02-26T13:52:16;1.50;;;1.00;;
47129;SDS011;69689;48.122;11.542;2024-02-26T13:54:45;4.45;;;1.20;;
47129;SDS011;69689;48.122;11.542;2024-02-26T13:57:11;4.43;;;0.90;;
47129;SDS011;69689;48.122;11.542;2024-02-26T13:59:36;4.05;;;1.20;;
47129;SDS011;69689;48.122;11.542;2024-02-26T14:02:02;3.10;;;0.80;;
47129;SDS011;69689;48.122;11.542;2024-02-26T14:04:27;2.03;;;0.95;;
47129;SDS011;69689;48.122;11.542;2024-02-26T14:06:53;2.47;;;1.10;;
47129;SDS011;69689;48.122;11.542;2024-02-26T14:09:18;2.15;;;0.70;;
47129;SDS011;69689;48.122;11.542;2024-02-26T14:11:47;2.42;;;1.42;;
47129;SDS011;69689;48.122;11.542;2024-02-26T14:14:13;4.65;;;1.02;;
47129;SDS011;69689;48.122;11.542;2024-02-26T14:16:38;5.15;;;0.70;;
47129;SDS011;69689;48.122;11.542;2024-02-26T14:19:04;2.20;;;0.95;;
47129;SDS011;69689;48.122;11.542;2024-02-26T14:21:29;1.75;;;0.85;;
47129;SDS011;69689;48.122;11.542;2024-02-26T14:23:55;1.20;;;0.70;;
47129;SDS011;69689;48.122;11.542;2024-02-26T14:26:21;1.58;;;0.75;;
47129;SDS011;69689;48.122;11.542;2024-02-26T14:28:47;3.33;;;0.95;;
47129;SDS011;69689;48.122;11.542;2024-02-26T14:31:12;5.03;;;1.00;;
47129;SDS011;69689;48.122;11.542;2024-02-26T14:33:38;3.13;;;1.10;;
47129;SDS011;69689;48.122;11.542;2024-02-26T14:36:06;4.07;;;1.60;;
47129;SDS011;69689;48.122;11.542;2024-02-26T14:38:32;2.47;;;1.10;;
47129;SDS011;69689;48.122;11.542;2024-02-26T14:41:01;5.05;;;1.25;;
47129;SDS011;69689;48.122;11.542;2024-02-26T14:43:27;4.13;;;1.48;;
47129;SDS011;69689;48.122;11.542;2024-02-26T14:45:53;2.53;;;1.63;;
47129;SDS011;69689;48.122;11.542;2024-02-26T14:48:18;2.63;;;1.05;;
47129;SDS011;69689;48.122;11.542;2024-02-26T14:50:44;2.85;;;1.27;;
47129;SDS011;69689;48.122;11.542;2024-02-26T14:53:09;3.92;;;1.10;;
47129;SDS011;69689;48.122;11.542;2024-02-26T14:55:35;3.35;;;1.58;;
47129;SDS011;69689;48.122;11.542;2024-02-26T14:58:00;2.78;;;1.70;;
47129;SDS011;69689;48.122;11.542;2024-02-26T15:00:26;1.52;;;1.10;;
47129;SDS011;69689;48.122;11.542;2024-02-26T15:02:51;4.78;;;1.27;;
47129;SDS011;69689;48.122;11.542;2024-02-26T15:05:19;3.17;;;1.60;;
47129;SDS011;69689;48.122;11.542;2024-02-26T15:07:44;2.55;;;1.50;;
47129;SDS011;69689;48.122;11.542;2024-02-26T15:10:10;2.85;;;1.80;;
47129;SDS011;69689;48.122;11.542;2024-02-26T15:12:35;2.72;;;1.30;;
47129;SDS011;69689;48.122;11.542;2024-02-26T15:15:01;3.83;;;1.83;;
47129;SDS011;69689;48.122;11.542;2024-02-26T15:17:29;3.92;;;1.80;;
47129;SDS011;69689;48.122;11.542;2024-02-26T15:19:58;3.83;;;1.77;;
47129;SDS011;69689;48.122;11.542;2024-02-26T15:22:30;5.80;;;1.45;;
47129;SDS011;69689;48.122;11.542;2024-02-26T15:25:19;4.35;;;1.98;;
47129;SDS011;69689;48.122;11.542;2024-02-26T15:27:45;3.25;;;1.98;;
47129;SDS011;69689;48.122;11.542;2024-02-26T15:30:10;8.75;;;1.92;;
47129;SDS011;69689;48.122;11.542;2024-02-26T15:32:36;3.17;;;1.70;;
47129;SDS011;69689;48.122;11.542;2024-02-26T15:35:01;2.63;;;1.77;;
47129;SDS011;69689;48.122;11.542;2024-02-26T15:37:26;2.70;;;1.60;;
47129;SDS011;69689;48.122;11.542;2024-02-26T15:39:52;3.70;;;1.85;;
47129;SDS011;69689;48.122;11.542;2024-02-26T15:42:18;2.75;;;1.48;;
47129;SDS011;69689;48.122;11.542;2024-02-26T15:44:43;3.40;;;1.58;;
47129;SDS011;69689;48.122;11.542;2024-02-26T15:47:09;5.43;;;2.22;;
47129;SDS011;69689;48.122;11.542;2024-02-26T15:49:34;6.60;;;2.70;;
47129;SDS011;69689;48.122;11.542;2024-02-26T15:52:00;3.58;;;1.50;;
47129;SDS011;69689;48.122;11.542;2024-02-26T15:54:25;4.95;;;1.63;;
47129;SDS011;69689;48.122;11.542;2024-02-26T15:56:51;3.97;;;1.98;;
47129;SDS011;69689;48.122;11.542;2024-02-26T15:59:16;6.20;;;2.55;;
47129;SDS011;69689;48.122;11.542;2024-02-26T16:01:42;3.58;;;1.58;;
47129;SDS011;69689;48.122;11.542;2024-02-26T16:04:09;2.72;;;1.30;;
47129;SDS011;69689;48.122;11.542;2024-02-26T16:06:39;2.25;;;1.02;;
47129;SDS011;69689;48.122;11.542;2024-02-26T16:09:06;3.60;;;1.13;;
47129;SDS011;69689;48.122;11.542;2024-02-26T16:11:32;3.80;;;1.30;;
47129;SDS011;69689;48.122;11.542;2024-02-26T16:14:00;1.90;;;1.30;;
47129;SDS011;69689;48.122;11.542;2024-02-26T16:17:00;2.25;;;1.35;;
47129;SDS011;69689;48.122;11.542;2024-02-26T16:19:31;1.40;;;0.70;;
47129;SDS011;69689;48.122;11.542;2024-02-26T16:21:56;3.60;;;0.85;;
47129;SDS011;69689;48.122;11.542;2024-02-26T16:24:22;1.30;;;0.77;;
47129;SDS011;69689;48.122;11.542;2024-02-26T16:26:47;2.20;;;1.05;;
47129;SDS011;69689;48.122;11.542;2024-02-26T16:29:13;3.92;;;0.98;;
47129;SDS011;69689;48.122;11.542;2024-02-26T16:31:38;1.75;;;1.05;;
47129;SDS011;69689;48.122;11.542;2024-02-26T16:34:03;3.28;;;1.02;;
47129;SDS011;69689;48.122;11.542;2024-02-26T16:36:29;2.17;;;0.93;;
47129;SDS011;69689;48.122;11.542;2024-02-26T16:38:54;1.75;;;0.88;;
47129;SDS011;69689;48.122;11.542;2024-02-26T16:41:19;3.33;;;1.00;;
47129;SDS011;69689;48.122;11.542;2024-02-26T16:43:45;1.35;;;0.98;;
47129;SDS011;69689;48.122;11.542;2024-02-26T16:46:10;1.92;;;1.17;;
47129;SDS011;69689;48.122;11.542;2024-02-26T16:48:37;2.40;;;1.35;;
47129;SDS011;69689;48.122;11.542;2024-02-26T16:51:03;5.93;;;1.48;;
47129;SDS011;69689;48.122;11.542;2024-02-26T16:53:28;2.90;;;1.33;;
47129;SDS011;69689;48.122;11.542;2024-02-26T16:55:54;2.45;;;1.35;;
47129;SDS011;69689;48.122;11.542;2024-02-26T16:58:19;3.60;;;1.27;;
47129;SDS011;69689;48.122;11.542;2024-02-26T17:00:48;2.10;;;1.17;;
47129;SDS011;69689;48.122;11.542;2024-02-26T17:03:14;3.85;;;1.23;;
47129;SDS011;69689;48.122;11.542;2024-02-26T17:05:40;2.72;;;1.27;;
47129;SDS011;69689;48.122;11.542;2024-02-26T17:08:06;2.85;;;1.20;;
47129;SDS011;69689;48.122;11.542;2024-02-26T17:10:32;3.33;;;1.88;;
47129;SDS011;69689;48.122;11.542;2024-02-26T17:12:57;3.75;;;1.77;;
47129;SDS011;69689;48.122;11.542;2024-02-26T17:15:22;2.03;;;1.42;;
47129;SDS011;69689;48.122;11.542;2024-02-26T17:17:48;5.50;;;1.50;;
47129;SDS011;69689;48.122;11.542;2024-02-26T17:20:14;2.83;;;1.70;;
47129;SDS011;69689;48.122;11.542;2024-02-26T17:22:39;1.73;;;1.15;;
47129;SDS011;69689;48.122;11.542;2024-02-26T17:25:05;7.50;;;2.25;;
47129;SDS011;69689;48.122;11.542;2024-02-26T17:27:31;2.65;;;1.35;;
47129;SDS011;69689;48.122;11.542;2024-02-26T17:29:56;3.65;;;1.90;;
47129;SDS011;69689;48.122;11.542;2024-02-26T17:32:22;3.38;;;1.63;;
47129;SDS011;69689;48.122;11.542;2024-02-26T17:34:47;2.80;;;1.70;;
47129;SDS011;69689;48.122;11.542;2024-02-26T17:37:13;1.73;;;1.42;;
47129;SDS011;69689;48.122;11.542;2024-02-26T17:39:38;3.78;;;2.13;;
47129;SDS011;69689;48.122;11.542;2024-02-26T17:42:04;3.15;;;1.92;;
47129;SDS011;69689;48.122;11.542;2024-02-26T17:44:36;4.18;;;2.00;;
47129;SDS011;69689;48.122;11.542;2024-02-26T17:47:04;3.47;;;1.90;;
47129;SDS011;69689;48.122;11.542;2024-02-26T17:49:30;1.75;;;1.45;;
47129;SDS011;69689;48.122;11.542;2024-02-26T17:51:55;5.10;;;2.25;;
47129;SDS011;69689;48.122;11.542;2024-02-26T17:54:21;4.22;;;2.00;;
47129;SDS011;69689;48.122;11.542;2024-02-26T17:56:46;3.33;;;2.10;;
47129;SDS011;69689;48.122;11.542;2024-02-26T17:59:11;5.10;;;2.90;;
47129;SDS011;69689;48.122;11.542;2024-02-26T18:01:37;5.00;;;2.38;;
47129;SDS011;69689;48.122;11.542;2024-02-26T18:04:02;3.90;;;1.60;;
47129;SDS011;69689;48.122;11.542;2024-02-26T18:06:28;2.95;;;1.73;;
47129;SDS011;69689;48.122;11.542;2024-02-26T18:08:53;3.22;;;1.63;;
47129;SDS011;69689;48.122;11.542;2024-02-26T18:11:19;4.30;;;2.10;;
47129;SDS011;69689;48.122;11.542;2024-02-26T18:13:44;4.38;;;2.47;;
47129;SDS011;69689;48.122;11.542;2024-02-26T18:16:10;5.28;;;2.15;;
47129;SDS011;69689;48.122;11.542;2024-02-26T18:18:36;4.88;;;2.40;;
47129;SDS011;69689;48.122;11.542;2024-02-26T18:21:02;5.05;;;2.85;;
47129;SDS011;69689;48.122;11.542;2024-02-26T18:23:27;4.22;;;2.67;;
47129;SDS011;69689;48.122;11.542;2024-02-26T18:25:54;3.72;;;2.30;;
47129;SDS011;69689;48.122;11.542;2024-02-26T18:28:20;6.00;;;1.90;;
47129;SDS011;69689;48.122;11.542;2024-02-26T18:30:46;4.82;;;2.15;;
47129;SDS011;69689;48.122;11.542;2024-02-26T18:33:12;3.83;;;2.17;;
47129;SDS011;69689;48.122;11.542;2024-02-26T18:35:37;6.43;;;2.40;;
47129;SDS011;69689;48.122;11.542;2024-02-26T18:38:03;5.10;;;2.47;;
47129;SDS011;69689;48.122;11.542;2024-02-26T18:40:29;5.70;;;2.25;;
47129;SDS011;69689;48.122;11.542;2024-02-26T18:42:54;3.08;;;2.30;;
47129;SDS011;69689;48.122;11.542;2024-02-26T18:45:20;4.05;;;2.25;;
47129;SDS011;69689;48.122;11.542;2024-02-26T18:47:45;4.30;;;2.20;;
47129;SDS011;69689;48.122;11.542;2024-02-26T18:50:14;4.18;;;2.28;;
47129;SDS011;69689;48.122;11.542;2024-02-26T18:52:40;4.25;;;2.50;;
47129;SDS011;69689;48.122;11.542;2024-02-26T18:55:05;5.25;;;2.40;;
47129;SDS011;69689;48.122;11.542;2024-02-26T18:57:31;3.13;;;2.33;;
47129;SDS011;69689;48.122;11.542;2024-02-26T18:59:57;3.65;;;2.33;;
47129;SDS011;69689;48.122;11.542;2024-02-26T19:02:22;4.03;;;2.13;;
47129;SDS011;69689;48.122;11.542;2024-02-26T19:04:48;4.28;;;2.30;;
47129;SDS011;69689;48.122;11.542;2024-02-26T19:07:13;6.88;;;3.03;;
47129;SDS011;69689;48.122;11.542;2024-02-26T19:09:38;4.47;;;1.95;;
47129;SDS011;69689;48.122;11.542;2024-02-26T19:12:04;3.78;;;2.10;;
47129;SDS011;69689;48.122;11.542;2024-02-26T19:14:30;3.83;;;2.10;;
47129;SDS011;69689;48.122;11.542;2024-02-26T19:16:55;4.30;;;2.30;;
47129;SDS011;69689;48.122;11.542;2024-02-26T19:19:20;4.25;;;1.95;;
47129;SDS011;69689;48.122;11.542;2024-02-26T19:21:47;5.70;;;2.40;;
47129;SDS011;69689;48.122;11.542;2024-02-26T19:24:12;6.15;;;2.30;;
47129;SDS011;69689;48.122;11.542;2024-02-26T19:26:40;4.63;;;2.17;;
47129;SDS011;69689;48.122;11.542;2024-02-26T19:29:06;4.38;;;2.35;;
47129;SDS011;69689;48.122;11.542;2024-02-26T19:31:31;3.63;;;2.22;;
47129;SDS011;69689;48.122;11.542;2024-02-26T19:33:57;7.93;;;2.42;;
47129;SDS011;69689;48.122;11.542;2024-02-26T19:36:23;6.75;;;3.08;;
47129;SDS011;69689;48.122;11.542;2024-02-26T19:38:48;8.18;;;3.47;;
47129;SDS011;69689;48.122;11.542;2024-02-26T19:41:14;4.60;;;2.50;;
47129;SDS011;69689;48.122;11.542;2024-02-26T19:43:39;4.50;;;2.30;;
47129;SDS011;69689;48.122;11.542;2024-02-26T19:46:05;4.40;;;2.17;;
47129;SDS011;69689;48.122;11.542;2024-02-26T19:48:30;4.90;;;2.47;;
47129;SDS011;69689;48.122;11.542;2024-02-26T19:50:55;5.50;;;2.55;;
47129;SDS011;69689;48.122;11.542;2024-02-26T19:53:21;3.90;;;2.25;;
47129;SDS011;69689;48.122;11.542;2024-02-26T19:55:47;4.20;;;2.58;;
47129;SDS011;69689;48.122;11.542;2024-02-26T19:58:12;4.80;;;2.50;;
47129;SDS011;69689;48.122;11.542;2024-02-26T20:00:38;5.47;;;2.88;;
